createdAt,value
2018-06-05T00:01:48.246Z,18.80
2018-06-05T00:04:16.689Z,18.80
2018-06-05T00:06:45.197Z,18.70
2018-06-05T00:09:13.621Z,18.60
2018-06-05T00:11:42.215Z,18.60
2018-06-05T00:14:10.672Z,18.60
2018-06-05T00:16:39.132Z,18.50
2018-06-05T00:19:07.588Z,18.50
2018-06-05T00:21:36.038Z,18.40
2018-06-05T00:24:04.476Z,18.30
2018-06-05T00:26:32.958Z,18.40
2018-06-05T00:29:01.432Z,18.40
2018-06-05T00:31:29.955Z,18.30
2018-06-05T00:33:58.579Z,18.20
2018-06-05T00:36:27.032Z,18.20
2018-06-05T00:38:55.486Z,18.00
2018-06-05T00:41:23.943Z,18.00
2018-06-05T00:43:52.520Z,18.00
2018-06-05T00:46:20.966Z,18.00
2018-06-05T00:48:49.507Z,17.90
2018-06-05T00:51:29.181Z,17.90
2018-06-05T00:53:57.722Z,17.80
2018-06-05T00:56:26.375Z,17.80
2018-06-05T00:58:54.963Z,17.80
2018-06-05T01:01:23.551Z,17.80
2018-06-05T01:03:52.025Z,17.80
2018-06-05T01:06:20.577Z,17.70
2018-06-05T01:08:49.197Z,17.70
2018-06-05T01:11:18.314Z,17.60
2018-06-05T01:13:46.823Z,17.60
2018-06-05T01:16:15.340Z,17.60
2018-06-05T01:18:43.848Z,17.50
2018-06-05T01:21:12.291Z,17.50
2018-06-05T01:23:40.831Z,17.40
2018-06-05T01:26:09.337Z,17.40
2018-06-05T01:28:37.856Z,17.40
2018-06-05T01:31:06.672Z,17.40
2018-06-05T01:33:35.500Z,17.30
2018-06-05T01:36:03.981Z,17.30
2018-06-05T01:38:32.467Z,17.20
2018-06-05T01:41:00.956Z,17.10
2018-06-05T01:43:29.453Z,17.10
2018-06-05T01:45:58.116Z,17.10
2018-06-05T01:48:26.550Z,17.00
2018-06-05T01:50:55.033Z,17.10
2018-06-05T01:53:23.510Z,17.10
2018-06-05T01:55:52.002Z,17.00
2018-06-05T01:58:20.458Z,16.90
2018-06-05T02:00:48.964Z,16.90
2018-06-05T02:03:17.485Z,16.90
2018-06-05T02:05:45.915Z,16.80
2018-06-05T02:08:14.461Z,16.80
2018-06-05T02:10:42.948Z,16.80
2018-06-05T02:13:11.424Z,16.80
2018-06-05T02:15:39.871Z,16.70
2018-06-05T02:18:08.544Z,16.70
2018-06-05T02:20:36.995Z,16.70
2018-06-05T02:23:05.556Z,16.70
2018-06-05T02:25:34.241Z,16.60
2018-06-05T02:28:02.724Z,16.60
2018-06-05T02:30:31.277Z,16.60
2018-06-05T02:32:59.732Z,16.50
2018-06-05T02:35:28.239Z,16.40
2018-06-05T02:37:56.740Z,16.50
2018-06-05T02:40:25.376Z,16.40
2018-06-05T02:45:22.204Z,16.40
2018-06-05T02:47:50.692Z,16.50
2018-06-05T02:50:19.234Z,16.40
2018-06-05T02:52:47.710Z,16.40
2018-06-05T02:55:16.263Z,16.40
2018-06-05T02:57:44.913Z,16.50
2018-06-05T03:00:13.588Z,16.50
2018-06-05T03:02:42.079Z,16.60
2018-06-05T03:05:10.524Z,16.60
2018-06-05T03:07:39.056Z,16.60
2018-06-05T03:10:07.738Z,16.70
2018-06-05T03:12:36.278Z,16.90
2018-06-05T03:15:05.167Z,16.80
2018-06-05T03:17:33.681Z,16.80
2018-06-05T03:20:02.129Z,16.80
2018-06-05T03:22:30.782Z,17.00
2018-06-05T03:24:59.290Z,17.00
2018-06-05T03:27:27.800Z,17.00
2018-06-05T03:29:56.474Z,17.00
2018-06-05T03:32:24.928Z,17.10
2018-06-05T03:34:53.409Z,17.10
2018-06-05T03:37:21.899Z,17.10
2018-06-05T03:39:50.345Z,17.20
2018-06-05T03:44:47.080Z,17.20
2018-06-05T03:47:15.536Z,17.20
2018-06-05T03:49:44.046Z,17.20
2018-06-05T03:52:12.529Z,17.20
2018-06-05T03:54:40.985Z,17.20
2018-06-05T03:57:09.591Z,17.20
2018-06-05T03:59:38.070Z,17.30
2018-06-05T04:02:06.624Z,17.30
2018-06-05T04:04:35.166Z,17.20
2018-06-05T04:07:03.708Z,17.30
2018-06-05T04:12:00.521Z,17.30
2018-06-05T04:14:29.075Z,17.30
2018-06-05T04:16:57.581Z,17.30
2018-06-05T04:19:26.036Z,17.20
2018-06-05T04:21:54.434Z,17.20
2018-06-05T04:24:22.903Z,17.30
2018-06-05T04:26:51.376Z,17.30
2018-06-05T04:29:19.926Z,17.30
2018-06-05T04:34:16.647Z,17.20
2018-06-05T04:36:45.214Z,17.30
2018-06-05T04:39:13.834Z,17.30
2018-06-05T04:41:42.538Z,17.30
2018-06-05T04:44:11.118Z,17.30
2018-06-05T04:46:39.620Z,17.40
2018-06-05T04:51:36.321Z,17.30
2018-06-05T04:54:04.821Z,17.40
2018-06-05T04:56:33.431Z,17.30
2018-06-05T04:59:02.044Z,17.30
2018-06-05T05:01:30.561Z,17.40
2018-06-05T05:03:59.014Z,17.30
2018-06-05T05:06:27.486Z,17.40
2018-06-05T05:08:56.022Z,17.60
2018-06-05T05:11:25.120Z,17.40
2018-06-05T05:16:22.700Z,17.50
2018-06-05T05:18:51.979Z,17.50
2018-06-05T05:21:22.747Z,17.50
2018-06-05T05:23:51.197Z,17.50
2018-06-05T05:26:19.685Z,17.50
2018-06-05T05:28:48.221Z,17.60
2018-06-05T05:31:16.721Z,17.60
2018-06-05T05:33:45.212Z,17.60
2018-06-05T05:36:13.946Z,17.60
2018-06-05T05:38:42.646Z,17.60
2018-06-05T05:41:11.110Z,17.70
2018-06-05T05:43:39.641Z,17.70
2018-06-05T05:46:08.070Z,17.70
2018-06-05T05:48:36.548Z,17.70
2018-06-05T05:51:05.033Z,17.70
2018-06-05T05:53:33.504Z,17.70
2018-06-05T05:56:02.038Z,17.80
2018-06-05T05:58:30.501Z,17.80
2018-06-05T06:00:59.044Z,17.90
2018-06-05T06:03:27.537Z,17.90
2018-06-05T06:05:56.014Z,18.00
2018-06-05T06:08:26.833Z,18.00
2018-06-05T06:10:55.391Z,18.00
2018-06-05T06:13:24.509Z,18.00
2018-06-05T06:15:52.972Z,18.10
2018-06-05T06:18:21.440Z,18.10
2018-06-05T06:20:50.454Z,18.20
2018-06-05T06:23:25.287Z,18.10
2018-06-05T06:25:53.767Z,18.10
2018-06-05T06:30:54.036Z,18.20
2018-06-05T06:33:22.510Z,18.30
2018-06-05T06:35:50.948Z,18.30
2018-06-05T06:38:19.507Z,18.20
2018-06-05T06:40:48.066Z,18.40
2018-06-05T06:43:16.573Z,18.30
2018-06-05T06:45:45.123Z,18.40
2018-06-05T06:48:13.652Z,18.40
2018-06-05T06:50:42.390Z,18.60
2018-06-05T06:53:10.919Z,18.40
2018-06-05T06:55:39.436Z,18.40
2018-06-05T06:58:07.934Z,18.50
2018-06-05T07:00:37.369Z,18.70
2018-06-05T07:03:06.073Z,18.60
2018-06-05T07:05:34.776Z,18.50
2018-06-05T07:10:32.115Z,18.70
2018-06-05T07:13:00.736Z,18.70
2018-06-05T07:15:29.320Z,18.80
2018-06-05T07:17:57.935Z,19.00
2018-06-05T07:20:26.435Z,18.90
2018-06-05T07:22:54.890Z,19.10
2018-06-05T07:25:23.427Z,19.10
2018-06-05T07:30:20.368Z,19.10
2018-06-05T07:32:48.986Z,19.20
2018-06-05T07:37:46.349Z,19.40
2018-06-05T07:40:14.957Z,19.10
2018-06-05T07:42:43.604Z,19.00
2018-06-05T07:45:12.303Z,19.30
2018-06-05T07:47:40.882Z,19.30
2018-06-05T07:50:09.499Z,19.40
2018-06-05T07:52:38.096Z,19.70
2018-06-05T07:55:06.566Z,19.70
2018-06-05T07:57:35.240Z,19.70
2018-06-05T08:00:04.285Z,19.60
2018-06-05T08:02:32.842Z,19.40
2018-06-05T08:05:01.501Z,19.00
2018-06-05T08:07:30.118Z,19.60
2018-06-05T08:09:59.010Z,19.80
2018-06-05T08:12:27.729Z,19.70
2018-06-05T08:14:57.993Z,19.70
2018-06-05T08:19:54.869Z,20.10
2018-06-05T08:22:24.261Z,20.30
2018-06-05T08:24:52.845Z,20.50
2018-06-05T08:27:21.335Z,20.50
2018-06-05T08:29:49.858Z,20.50
2018-06-05T08:32:18.292Z,20.50
2018-06-05T08:34:46.753Z,20.50
2018-06-05T08:37:15.271Z,20.80
2018-06-05T08:39:43.895Z,21.00
2018-06-05T08:42:12.420Z,20.70
2018-06-05T08:44:40.975Z,20.70
2018-06-05T08:47:09.407Z,20.80
2018-06-05T08:49:37.931Z,20.70
2018-06-05T08:52:06.539Z,20.70
2018-06-05T08:54:35.232Z,20.70
2018-06-05T08:57:03.741Z,21.00
2018-06-05T08:59:32.240Z,21.00
2018-06-05T09:02:00.853Z,21.40
2018-06-05T09:04:29.335Z,21.20
2018-06-05T09:06:57.804Z,21.30
2018-06-05T09:09:26.416Z,21.10
2018-06-05T09:11:55.076Z,21.40
2018-06-05T09:14:23.551Z,21.90
2018-06-05T09:16:52.027Z,21.90
2018-06-05T09:19:20.548Z,21.60
2018-06-05T09:21:49.186Z,21.80
2018-06-05T09:24:17.672Z,21.90
2018-06-05T09:26:46.158Z,21.80
2018-06-05T09:29:14.669Z,22.10
2018-06-05T09:31:43.219Z,22.20
2018-06-05T09:34:11.704Z,22.40
2018-06-05T09:36:40.343Z,21.80
2018-06-05T09:39:09.742Z,21.70
2018-06-05T09:44:06.555Z,22.00
2018-06-05T09:46:35.089Z,22.60
2018-06-05T09:49:03.598Z,22.60
2018-06-05T09:51:32.224Z,22.40
2018-06-05T09:54:00.767Z,22.60
2018-06-05T09:56:29.293Z,22.60
2018-06-05T09:58:57.920Z,22.90
2018-06-05T10:01:26.452Z,23.20
2018-06-05T10:03:55.156Z,22.70
2018-06-05T10:06:23.579Z,23.00
2018-06-05T10:08:52.140Z,23.50
2018-06-05T10:11:20.587Z,24.10
2018-06-05T10:13:49.181Z,24.20
2018-06-05T10:16:17.692Z,24.80
2018-06-05T10:18:46.197Z,24.90
2018-06-05T10:21:14.690Z,24.70
2018-06-05T10:23:45.063Z,24.40
2018-06-05T10:28:41.707Z,24.40
2018-06-05T10:31:10.263Z,24.10
2018-06-05T10:33:39.436Z,23.70
2018-06-05T10:36:07.920Z,24.30
2018-06-05T10:38:36.374Z,24.70
2018-06-05T10:41:04.938Z,25.30
2018-06-05T10:43:33.588Z,24.90
2018-06-05T10:46:02.137Z,24.60
2018-06-05T10:48:30.736Z,24.10
2018-06-05T10:50:59.294Z,23.20
2018-06-05T10:53:27.856Z,23.00
2018-06-05T10:55:56.301Z,22.80
2018-06-05T10:58:24.837Z,23.20
2018-06-05T11:00:53.356Z,23.90
2018-06-05T11:03:21.882Z,24.70
2018-06-05T11:05:50.565Z,24.60
2018-06-05T11:08:19.239Z,24.00
2018-06-05T11:10:47.744Z,23.80
2018-06-05T11:13:16.236Z,23.40
2018-06-05T11:15:44.777Z,24.10
2018-06-05T11:18:13.498Z,24.40
2018-06-05T11:20:42.056Z,23.60
2018-06-05T11:23:10.562Z,22.80
2018-06-05T11:25:39.057Z,22.60
2018-06-05T11:28:07.561Z,22.60
2018-06-05T11:30:36.112Z,22.60
2018-06-05T11:33:04.581Z,22.20
2018-06-05T11:35:33.078Z,22.50
2018-06-05T11:38:01.618Z,23.20
2018-06-05T11:40:30.226Z,22.90
2018-06-05T11:42:58.673Z,23.40
2018-06-05T11:45:27.115Z,23.60
2018-06-05T11:47:55.646Z,24.30
2018-06-05T11:50:24.073Z,24.70
2018-06-05T11:52:52.606Z,24.40
2018-06-05T11:55:21.073Z,23.50
2018-06-05T11:57:49.547Z,23.10
2018-06-05T12:00:18.365Z,22.90
2018-06-05T12:02:46.879Z,22.60
2018-06-05T12:05:15.373Z,22.90
2018-06-05T12:07:43.931Z,23.40
2018-06-05T12:10:12.503Z,23.10
2018-06-05T12:12:41.037Z,23.20
2018-06-05T12:17:37.868Z,23.00
2018-06-05T12:20:06.424Z,22.70
2018-06-05T12:22:34.964Z,22.60
2018-06-05T12:25:03.513Z,22.90
2018-06-05T12:27:32.016Z,22.80
2018-06-05T12:30:00.650Z,23.10
2018-06-05T12:32:29.134Z,23.10
2018-06-05T12:34:57.613Z,23.20
2018-06-05T12:37:26.090Z,23.40
2018-06-05T12:39:54.540Z,23.20
2018-06-05T12:42:23.051Z,23.00
2018-06-05T12:44:51.530Z,23.10
2018-06-05T12:47:19.960Z,23.00
2018-06-05T12:52:16.721Z,23.20
2018-06-05T12:54:45.238Z,23.30
2018-06-05T12:57:13.820Z,23.30
2018-06-05T12:59:42.279Z,23.20
2018-06-05T13:02:10.766Z,23.30
2018-06-05T13:04:39.481Z,23.00
2018-06-05T13:07:08.045Z,23.20
2018-06-05T13:09:36.516Z,23.10
2018-06-05T13:12:05.085Z,22.90
2018-06-05T13:14:33.513Z,23.00
2018-06-05T13:17:01.991Z,22.70
2018-06-05T13:19:30.552Z,22.90
2018-06-05T13:21:59.045Z,22.80
2018-06-05T13:24:27.666Z,22.70
2018-06-05T13:27:06.811Z,22.90
2018-06-05T13:32:05.137Z,22.60
2018-06-05T13:34:33.678Z,22.60
2018-06-05T13:37:02.184Z,22.90
2018-06-05T13:39:30.727Z,22.90
2018-06-05T13:41:59.328Z,22.90
2018-06-05T13:44:28.031Z,22.70
2018-06-05T13:46:56.495Z,22.80
2018-06-05T13:51:53.330Z,22.80
2018-06-05T13:54:21.786Z,22.70
2018-06-05T13:56:50.304Z,22.70
2018-06-05T13:59:18.716Z,22.70
2018-06-05T14:01:47.321Z,22.90
2018-06-05T14:04:15.940Z,23.20
2018-06-05T14:06:44.436Z,23.10
2018-06-05T14:11:41.081Z,22.90
2018-06-05T14:14:09.506Z,23.10
2018-06-05T14:16:38.041Z,23.10
2018-06-05T14:19:06.588Z,23.20
2018-06-05T14:21:35.159Z,23.00
2018-06-05T14:24:04.416Z,23.00
2018-06-05T14:26:32.869Z,22.90
2018-06-05T14:29:01.361Z,23.00
2018-06-05T14:31:30.629Z,22.90
2018-06-05T14:33:59.129Z,23.10
2018-06-05T14:36:27.814Z,22.90
2018-06-05T14:38:56.739Z,22.90
2018-06-05T14:41:25.362Z,23.20
2018-06-05T14:43:53.829Z,22.80
2018-06-05T14:46:22.307Z,22.80
2018-06-05T14:48:50.849Z,22.70
2018-06-05T14:51:19.342Z,22.70
2018-06-05T14:53:47.796Z,22.70
2018-06-05T14:56:16.998Z,22.90
2018-06-05T14:58:45.546Z,22.90
2018-06-05T15:01:14.073Z,22.90
2018-06-05T15:03:42.538Z,22.90
2018-06-05T15:06:11.009Z,22.70
2018-06-05T15:08:39.488Z,22.60
2018-06-05T15:11:07.998Z,22.60
2018-06-05T15:13:36.480Z,22.60
2018-06-05T15:16:05.196Z,22.70
2018-06-05T15:18:33.707Z,22.80
2018-06-05T15:21:02.147Z,22.90
2018-06-05T15:23:30.749Z,22.80
2018-06-05T15:25:59.339Z,22.70
2018-06-05T15:28:27.774Z,22.80
2018-06-05T15:33:24.389Z,22.70
2018-06-05T15:35:53.006Z,22.80
2018-06-05T15:38:21.459Z,22.80
2018-06-05T15:40:49.966Z,22.70
2018-06-05T15:43:18.421Z,22.80
2018-06-05T15:45:46.924Z,22.70
2018-06-05T15:48:15.481Z,22.70
2018-06-05T15:50:44.020Z,22.70
2018-06-05T15:53:12.621Z,22.70
2018-06-05T15:55:41.164Z,22.50
2018-06-05T15:58:09.661Z,22.50
2018-06-05T16:00:38.126Z,22.60
2018-06-05T16:03:06.658Z,22.80
2018-06-05T16:05:35.309Z,22.70
2018-06-05T16:08:03.791Z,22.60
2018-06-05T16:10:32.295Z,22.50
2018-06-05T16:13:00.835Z,22.70
2018-06-05T16:17:57.562Z,22.60
2018-06-05T16:20:26.224Z,22.60
2018-06-05T16:22:54.706Z,22.50
2018-06-05T16:25:23.308Z,22.60
2018-06-05T16:27:51.889Z,22.70
2018-06-05T16:30:21.445Z,22.60
2018-06-05T16:32:49.990Z,22.70
2018-06-05T16:35:18.464Z,22.70
2018-06-05T16:37:46.914Z,22.60
2018-06-05T16:40:15.404Z,22.50
2018-06-05T16:42:43.884Z,22.40
2018-06-05T16:45:12.367Z,22.30
2018-06-05T16:47:40.821Z,22.50
2018-06-05T16:50:09.342Z,22.50
2018-06-05T16:52:37.996Z,22.50
2018-06-05T16:55:06.581Z,22.60
2018-06-05T16:57:35.190Z,22.60
2018-06-05T17:00:03.801Z,22.50
2018-06-05T17:02:32.243Z,22.30
2018-06-05T17:05:00.772Z,22.20
2018-06-05T17:07:29.243Z,22.20
2018-06-05T17:09:57.669Z,22.30
2018-06-05T17:12:26.220Z,22.30
2018-06-05T17:14:54.681Z,22.30
2018-06-05T17:17:23.352Z,22.20
2018-06-05T17:19:51.857Z,22.20
2018-06-05T17:22:21.167Z,22.10
2018-06-05T17:24:49.627Z,22.10
2018-06-05T17:27:18.306Z,21.90
2018-06-05T17:29:46.919Z,22.00
2018-06-05T17:32:15.517Z,22.00
2018-06-05T17:34:44.126Z,22.00
2018-06-05T17:37:12.753Z,21.90
2018-06-05T17:39:41.269Z,21.90
2018-06-05T17:42:09.947Z,21.90
2018-06-05T17:44:38.643Z,21.90
2018-06-05T17:47:07.237Z,21.90
2018-06-05T17:49:35.746Z,21.80
2018-06-05T17:52:04.376Z,21.80
2018-06-05T17:54:32.973Z,21.80
2018-06-05T17:57:01.677Z,21.70
2018-06-05T17:59:30.189Z,21.70
2018-06-05T18:01:58.995Z,21.70
2018-06-05T18:04:27.576Z,21.70
2018-06-05T18:06:56.094Z,21.60
2018-06-05T18:09:24.630Z,21.60
2018-06-05T18:11:53.335Z,21.60
2018-06-05T18:14:21.797Z,21.60
2018-06-05T18:16:50.377Z,21.60
2018-06-05T18:19:18.893Z,21.60
2018-06-05T18:21:47.402Z,21.60
2018-06-05T18:24:16.380Z,21.50
2018-06-05T18:26:44.877Z,21.40
2018-06-05T18:29:13.542Z,21.40
2018-06-05T18:31:42.083Z,21.40
2018-06-05T18:34:10.725Z,21.30
2018-06-05T18:36:39.279Z,21.30
2018-06-05T18:39:08.813Z,21.20
2018-06-05T18:41:37.377Z,21.20
2018-06-05T18:44:07.155Z,21.20
2018-06-05T18:46:36.489Z,21.10
2018-06-05T18:49:06.076Z,21.00
2018-06-05T18:51:35.737Z,21.00
2018-06-05T18:54:04.334Z,20.90
2018-06-05T18:56:32.817Z,20.90
2018-06-05T18:59:01.304Z,20.90
2018-06-05T19:01:30.275Z,20.80
2018-06-05T19:03:58.786Z,20.80
2018-06-05T19:06:27.206Z,20.70
2018-06-05T19:08:55.789Z,20.60
2018-06-05T19:11:24.866Z,20.60
2018-06-05T19:13:53.707Z,20.50
2018-06-05T19:16:22.701Z,20.50
2018-06-05T19:18:51.164Z,20.30
2018-06-05T19:21:19.898Z,20.30
2018-06-05T19:23:48.834Z,20.30
2018-06-05T19:26:18.193Z,20.30
2018-06-05T19:28:50.259Z,20.20
2018-06-05T19:31:18.914Z,20.20
2018-06-05T19:33:47.480Z,20.20
2018-06-05T19:36:16.178Z,20.00
2018-06-05T19:38:44.817Z,20.00
2018-06-05T19:41:13.412Z,20.00
2018-06-05T19:43:42.101Z,20.00
2018-06-05T19:46:11.070Z,20.00
2018-06-05T19:48:39.703Z,20.00
2018-06-05T19:51:08.287Z,19.90
2018-06-05T19:53:36.850Z,19.80
2018-06-05T19:56:05.856Z,19.70
2018-06-05T19:58:34.574Z,19.70
2018-06-05T20:01:03.278Z,19.70
2018-06-05T20:03:31.949Z,19.70
2018-06-05T20:06:00.617Z,19.70
2018-06-05T20:08:29.139Z,19.60
2018-06-05T20:10:58.209Z,19.50
2018-06-05T20:13:27.154Z,19.40
2018-06-05T20:15:55.783Z,19.40
2018-06-05T20:18:24.381Z,19.40
2018-06-05T20:20:53.293Z,19.30
2018-06-05T20:23:22.049Z,19.40
2018-06-05T20:25:50.552Z,19.30
2018-06-05T20:30:47.456Z,19.20
2018-06-05T20:33:15.983Z,19.20
2018-06-05T20:35:45.116Z,19.20
2018-06-05T20:38:13.900Z,19.20
2018-06-05T20:43:10.556Z,19.00
2018-06-05T20:45:39.302Z,19.00
2018-06-05T20:48:07.914Z,18.90
2018-06-05T20:50:36.506Z,18.90
2018-06-05T20:53:05.204Z,18.80
2018-06-05T20:55:35.110Z,18.80
2018-06-05T20:58:03.844Z,18.70
2018-06-05T21:00:32.615Z,18.60
2018-06-05T21:03:01.148Z,18.60
2018-06-05T21:05:29.747Z,18.60
2018-06-05T21:07:58.241Z,18.60
2018-06-05T21:10:26.948Z,18.50
2018-06-05T21:12:55.447Z,18.50
2018-06-05T21:15:23.914Z,18.50
2018-06-05T21:17:52.368Z,18.40
2018-06-05T21:20:20.842Z,18.40
2018-06-05T21:22:49.348Z,18.40
2018-06-05T21:25:18.355Z,18.30
2018-06-05T21:27:46.871Z,18.20
2018-06-05T21:30:15.362Z,18.20
2018-06-05T21:32:43.837Z,18.30
2018-06-05T21:35:12.392Z,18.20
2018-06-05T21:37:40.976Z,18.20
2018-06-05T21:40:09.456Z,18.20
2018-06-05T21:42:38.279Z,18.10
2018-06-05T21:45:07.437Z,18.10
2018-06-05T21:47:35.873Z,18.10
2018-06-05T21:50:04.836Z,18.00
2018-06-05T21:55:01.652Z,18.00
2018-06-05T21:57:30.198Z,18.10
2018-06-05T21:59:58.773Z,18.10
2018-06-05T22:02:27.193Z,18.10
2018-06-05T22:04:55.668Z,18.00
2018-06-05T22:07:24.368Z,17.90
2018-06-05T22:09:53.002Z,17.90
2018-06-05T22:12:21.782Z,17.90
2018-06-05T22:14:50.462Z,17.80
2018-06-05T22:17:19.012Z,17.80
2018-06-05T22:19:47.685Z,17.80
2018-06-05T22:22:16.250Z,17.70
2018-06-05T22:24:44.951Z,17.70
2018-06-05T22:27:13.408Z,17.70
2018-06-05T22:29:41.920Z,17.70
2018-06-05T22:32:10.504Z,17.60
2018-06-05T22:34:39.062Z,17.60
2018-06-05T22:37:07.904Z,17.50
2018-06-05T22:39:36.333Z,17.50
2018-06-05T22:42:05.241Z,17.50
2018-06-05T22:44:33.820Z,17.40
2018-06-05T22:47:02.745Z,17.40
2018-06-05T22:49:31.438Z,17.40
2018-06-05T22:52:00.039Z,17.40
2018-06-05T22:54:28.531Z,17.30
2018-06-05T22:56:57.493Z,17.30
2018-06-05T22:59:26.008Z,17.20
2018-06-05T23:01:54.495Z,17.20
2018-06-05T23:04:23.165Z,17.20
2018-06-05T23:06:51.689Z,17.20
2018-06-05T23:09:20.852Z,17.20
2018-06-05T23:11:49.700Z,17.20
2018-06-05T23:14:18.590Z,17.10
2018-06-05T23:16:47.339Z,17.20
2018-06-05T23:19:16.071Z,17.10
2018-06-05T23:21:44.750Z,17.10
2018-06-05T23:24:13.561Z,17.10
2018-06-05T23:26:42.693Z,17.10
2018-06-05T23:29:12.045Z,17.10
2018-06-05T23:31:40.744Z,17.00
2018-06-05T23:34:09.698Z,16.90
2018-06-05T23:36:38.274Z,16.90
2018-06-05T23:39:07.969Z,16.90
2018-06-05T23:41:36.461Z,16.80
2018-06-05T23:44:05.121Z,16.80
2018-06-05T23:46:33.557Z,16.80
2018-06-05T23:49:02.139Z,16.70
2018-06-05T23:51:30.681Z,16.70
2018-06-05T23:53:59.230Z,16.70
2018-06-05T23:56:27.996Z,16.60
2018-06-05T23:58:56.469Z,16.60
